Humidity-temperature Sensor

Selected Measurement Type: Relative Humidity

 
Relative Humidity [%]     6 entries per hour
Showing data from 10/8/2015 (00:00:00 Z) to 10/5/2015 (00:01:00 Z)
Previous Next [ Day | 3-Days | 7-Days ]
First Last
Prev [ Day | 3-Days | 7-Days ] Next
First Last

Start Time:     :
End Time:     :     
Time (in GMT) :00 :50 :40 :30 :20 :10
Previous Next [ Day | 3-Days | 7-Days ]
First Last
Prev [ Day | 3-Days | 7-Days ] Next
First Last


123 => good data
MM => data is determined as missing
-- => data not received/configured
Back to Top Back to Top
10/8/2015 00:00 to 23:10 84.64 81.79 78.65 78.30 78.21 78.60
10/7/2015 23:00 to 22:10 78.34 78.19 77.72 77.85 78.11 79.30
10/7/2015 22:00 to 21:10 79.23 78.80 77.93 77.95 77.63 76.76
10/7/2015 21:00 to 20:10 77.43 78.56 77.93 76.98 77.93 77.87
10/7/2015 20:00 to 19:10 77.11 77.37 78.95 78.26 79.04 77.93
10/7/2015 19:00 to 18:10 77.61 78.37 78.56 78.82 79.01 78.84
10/7/2015 18:00 to 17:10 77.54 78.97 79.84 78.86 78.52 78.95
10/7/2015 17:00 to 16:10 79.23 79.06 79.49 78.08 78.93 75.68
10/7/2015 16:00 to 15:10 79.58 80.27 79.19 79.49 79.69 79.84
10/7/2015 15:00 to 14:10 79.77 80.16 79.10 79.71 80.14 79.40
10/7/2015 14:00 to 13:10 80.46 80.55 80.51 80.34 79.38 80.53
10/7/2015 13:00 to 12:10 79.04 80.14 81.31 83.17 81.66 82.91
10/7/2015 12:00 to 11:10 79.88 79.56 79.17 79.53 79.34 79.95
10/7/2015 11:00 to 10:10 80.46 80.18 79.38 79.25 80.18 79.97
10/7/2015 10:00 to 9:10 80.21 80.27 81.03 81.16 82.69 81.83
10/7/2015 09:00 to 8:10 81.35 81.31 80.29 80.88 80.92 80.25
10/7/2015 08:00 to 7:10 79.71 79.82 79.49 80.66 80.46 80.66
10/7/2015 07:00 to 6:10 80.38 79.36 78.32 78.52 78.80 79.06
10/7/2015 06:00 to 5:10 77.65 78.21 78.37 78.45 77.50 75.92
10/7/2015 05:00 to 4:10 76.70 77.74 77.74 78.26 77.82 78.82
10/7/2015 04:00 to 3:10 78.41 77.46 76.76 77.61 78.58 78.11
10/7/2015 03:00 to 2:10 80.21 80.75 79.27 77.87 77.65 77.63
10/7/2015 02:00 to 1:10 77.76 78.45 79.08 77.74 77.20 77.78
10/7/2015 01:00 to 0:10 76.92 75.66 76.63 78.28 79.01 77.56
10/7/2015 00:00 to 23:10 76.33 78.52 77.41 77.61 78.15 77.43
10/6/2015 23:00 to 22:10 78.02 77.87 78.86 79.08 80.01 80.16
10/6/2015 22:00 to 21:10 80.57 80.40 79.19 79.75 79.56 79.71
10/6/2015 21:00 to 20:10 80.31 79.73 78.76 78.80 78.95 78.30
10/6/2015 20:00 to 19:10 78.95 78.78 79.25 77.95 79.43 78.19
10/6/2015 19:00 to 18:10 79.04 77.61 77.17 78.56 78.50 78.65
10/6/2015 18:00 to 17:10 78.17 79.84 80.81 79.56 79.53 78.67
10/6/2015 17:00 to 16:10 79.36 79.88 79.49 79.32 79.77 80.36
10/6/2015 16:00 to 15:10 80.68 80.96 81.35 81.98 81.70 80.59
10/6/2015 15:00 to 14:10 81.59 81.29 81.42 80.81 80.05 80.88
10/6/2015 14:00 to 13:10 81.70 80.72 80.72 81.33 82.30 81.16
10/6/2015 13:00 to 12:10 80.83 80.66 79.73 80.03 80.77 80.57
10/6/2015 12:00 to 11:10 80.51 81.27 81.18 80.68 80.10 81.22
10/6/2015 11:00 to 10:10 80.36 80.79 80.16 81.31 81.76 82.43
10/6/2015 10:00 to 9:10 81.37 81.87 81.42 81.81 80.98 81.72
10/6/2015 09:00 to 8:10 81.31 80.08 79.77 80.40 79.90 81.33
10/6/2015 08:00 to 7:10 81.46 81.09 80.75 80.44 80.25 80.38
10/6/2015 07:00 to 6:10 80.38 79.95 79.43 79.86 79.30 81.31
10/6/2015 06:00 to 5:10 80.42 79.62 80.64 79.45 80.44 80.40
10/6/2015 05:00 to 4:10 79.79 79.25 79.30 81.05 80.31 79.95
10/6/2015 04:00 to 3:10 79.95 80.42 80.94 80.27 80.90 79.69
10/6/2015 03:00 to 2:10 79.45 78.34 77.95 77.80 77.85 78.06
10/6/2015 02:00 to 1:10 78.11 77.09 77.09 77.63 76.94 77.17
10/6/2015 01:00 to 0:10 78.19 78.37 77.54 78.15 77.98 78.08
10/6/2015 00:00 to 23:10 78.13 78.28 78.50 78.63 77.78 78.43
10/5/2015 23:00 to 22:10 78.15 78.54 78.30 78.24 78.56 78.76
10/5/2015 22:00 to 21:10 79.10 78.34 79.17 78.73 78.04 78.86
10/5/2015 21:00 to 20:10 79.62 79.34 79.47 79.40 78.78 79.49
10/5/2015 20:00 to 19:10 78.99 79.64 80.05 79.51 79.06 78.34
10/5/2015 19:00 to 18:10 79.86 78.95 78.04 78.52 77.80 78.76
10/5/2015 18:00 to 17:10 78.88 77.76 77.65 76.98 77.63 77.85
10/5/2015 17:00 to 16:10 77.98 77.39 77.20 78.97 78.91 78.63
10/5/2015 16:00 to 15:10 79.14 79.38 79.62 80.08 80.40 80.18
10/5/2015 15:00 to 14:10 80.23 80.34 79.64 79.71 79.97 80.38
10/5/2015 14:00 to 13:10 80.18 80.49 79.92 80.53 81.07 81.29
10/5/2015 13:00 to 12:10 81.24 80.46 80.42 79.64 79.60 79.79
10/5/2015 12:00 to 11:10 80.85 81.18 81.11 81.11 79.99 80.16
10/5/2015 11:00 to 10:10 79.38 79.17 79.69 79.17 79.32 80.01
10/5/2015 10:00 to 9:10 79.14 80.14 79.84 80.38 79.30 78.80
10/5/2015 09:00 to 8:10 78.52 78.52 78.99 78.32 77.76 77.87
10/5/2015 08:00 to 7:10 77.74 78.04 78.24 78.21 77.65 78.54
10/5/2015 07:00 to 6:10 77.41 77.50 77.15 77.33 77.74 77.41
10/5/2015 06:00 to 5:10 76.85 76.53 76.22 76.85 76.42 76.35
10/5/2015 05:00 to 4:10 76.79 76.83 77.09 76.76 77.02 76.87
10/5/2015 04:00 to 3:10 76.11 75.88 76.27 76.92 76.92 77.41
10/5/2015 03:00 to 2:10 76.70 74.84 74.38 75.44 74.75 74.19
10/5/2015 02:00 to 1:10 72.89 72.82 73.00 73.34 72.56 72.63
10/5/2015 01:00 to 0:10 72.46 73.34 74.23 72.78 72.82 72.37